Racecast

Brittany Barbone

Sheldon (CA) (CA) · 11 · DELTACA D1SJS D1 · Compare head to head

Athlete rating 119.4 2009 XC season
Best race 121.0 XC
Races 26
Seasons 3 2007 — 2009

RankedNation #13365·CA #2116·CA D1 #1049·SJS #178·SJS D1 #144·DELTA #6·Team #7 ?

Speed rating — all races

Cross Country

XC speed rating

2009 XC 117.9

Sheldon (CA) (CA) · Grade 11

Date Meet Event Result Place Rating Difficulty PR/SR Flags
2009-11-07 Calaveras County Fairgrounds 4828m 22:18 57th · 3rd on team 114.8 +0.065 ★CR CSR
2009-10-24 Mt. San Antonio College 4715m 20:57 35th · 3rd on team 121.0 +0.077 ★PR ★CR ★R SR CSR RSR
2009-10-17 Willow Hills Reservoir Course 5000m 22:25.2 39th · 3rd on team 117.2 +0.045 ★PR ★CR SR CSR
2009-10-10 Granite Park 4828m 20:30 2nd · 1st on team 119.0 +0.012 ★PR ★CR R SR CSR RSR
2009-10-07 Granite Park 4828m 20:53 10th · 5th on team 117.3 +0.012 PR CR R SR CSR RSR

2008 XC 106.3

Sheldon (CA) (CA) · Grade 10

Date Meet Event Result Place Rating Difficulty PR/SR Flags
2008-11-08 Calaveras County Fairgrounds 4828m 24:18 8th · 2nd on team 105.9 +0.065 SR CSR
2008-10-18 Willow Hills Reservoir Course 3400m 16:23 28th · 3rd on team 104.3 +0.043 ★PR ★CR SR CSR
2008-10-11 Woodward Park 5000m 23:12 167th · 4th on team 108.4 +0.013 PR ★CR SR CSR
2008-09-20 Calaveras County Fairgrounds 4828m 24:38 47th · 5th on team 103.6 +0.065 SR CSR
2008-08-30 Willow Hills Reservoir Course 5000m 24:00 14th · 4th on team 109.4 +0.045 PR CR SR CSR RSR

2007 XC 103.9

Sheldon (CA) (CA) · Grade 9

Date Meet Event Result Place Rating Difficulty PR/SR Flags
2007-11-03 Calaveras County Fairgrounds 4828m 23:59 31st · 2nd on team 107.2 +0.065 PR CR SR CSR
2007-10-13 Willow Hills Reservoir Course 4000m 20:59.9 9th · 2nd on team 103.4 +0.104 ★PR ★CR SR CSR
2007-09-22 Calaveras County Fairgrounds 3218m 14:48 13th · 1st on team 110.1 +0.084 ★PR ★CR R SR CSR RSR
2007-09-05 Lodi Lake 2896m 14:48 39th · 1st on team 95.2 +0.018 ★PR ★CR R SR CSR RSR

Track & Field

TF speed rating

2009 TF 111.7

Sheldon (CA) (CA) · Grade 10

Date Meet Event Result Place Rating Difficulty PR/SR Flags
2009-05-11 DRL FS Championships 1600m 6:00.27 4th · 3rd on team 115.2 -0.021
2009-05-11 DRL FS Championships 800m 2:50.73 4th · 3rd on team 107.8 -0.021
2009-05-09 Race results → 1600m 5:49.9 1st · 1st on team 117.2 ★PR R SR RSR
2009-04-24 BV Distance Carnival 1600m 6:03.56 19th · 3rd on team 112.4 -0.036 PR SR
2009-04-24 Bronco Roundup Distance Carnival 1600m 6:03.56 29th · 3rd on team 112.8 -0.036
2009-04-24 Bronco Roundup Distance Carnival 3200m 13:40.19 27th · 3rd on team 108.2 -0.036
2009-04-18 Depth Charge 3200m 13:27.27 7th · 1st on team 111.6 -0.021 ★PR SR
2009-04-04 Glenn Poole Invite 1600m 6:17.68 23rd · 3rd on team 109.6 -0.025 PR SR
2009-04-04 Glenn Poole Invite 800m 2:40.35 7th · 2nd on team 114.4 -0.025 ★PR R SR RSR
2009-03-28 Meet results → Women's 800 Meters 2:43.55 13th · 1st on team 111.2 ★PR R SR RSR
2009-03-28 Meet results → Women's 1600 Meters 6:17.4 22nd · 2nd on team 108.7 ★PR SR
2009-03-07 Race results → 3000m 14:01.27 32nd · 2nd on team ★PR SR